Time;durP1;ratioP1;P1;durP2;ratioP2;P2;SDS_P1;SDS_P2;PMS_P1;PMS_P2;Temp;Humidity;BMP_temperature;BMP_pressure;BME280_temperature;BME280_humidity;BME280_pressure;Samples;Min_cycle;Max_cycle;Signal;HPM_P1;HPM_P2
2021/12/23 00:00:06;;;;;;;17.17;12.90;;;1.80;99.90;;;;;;2614501;47;20935;-79
2021/12/23 00:02:34;;;;;;;16.67;13.03;;;0.90;99.90;;;;;;2614041;54;20930;-78
2021/12/23 00:05:00;;;;;;;15.23;11.13;;;1.00;99.90;;;;;;2614076;54;20454;-80
2021/12/23 00:07:26;;;;;;;20.80;13.17;;;1.10;99.90;;;;;;2614057;54;20416;-80
2021/12/23 00:12:20;;;;;;;20.37;13.13;;;1.40;99.90;;;;;;2612589;54;20151;-79
2021/12/23 00:14:49;;;;;;;18.10;12.30;;;1.60;99.90;;;;;;2614494;54;20410;-78
2021/12/23 00:17:55;;;;;;;18.13;13.03;;;1.50;99.90;;;;;;2613527;54;20175;-78
2021/12/23 00:25:20;;;;;;;22.53;13.87;;;1.30;99.90;;;;;;2614397;54;20403;-79
2021/12/23 00:27:46;;;;;;;21.93;14.63;;;1.40;99.90;;;;;;2614220;54;20415;-79
2021/12/23 00:30:12;;;;;;;20.63;12.93;;;1.70;99.90;;;;;;2614726;54;20410;-80
2021/12/23 00:32:38;;;;;;;18.03;13.60;;;1.80;99.60;;;;;;2612871;54;20391;-79
2021/12/23 00:35:05;;;;;;;23.80;14.20;;;1.90;97.20;;;;;;2614355;54;20695;-79
2021/12/23 00:37:41;;;;;;;21.57;14.00;;;1.80;96.50;;;;;;2614438;54;20432;-79
2021/12/23 00:40:09;;;;;;;19.23;12.33;;;2.20;95.00;;;;;;2614299;51;20550;-79
2021/12/23 00:42:35;;;;;;;18.20;12.93;;;2.10;96.10;;;;;;2615023;54;20414;-80
2021/12/23 00:45:03;;;;;;;21.43;13.70;;;2.10;96.60;;;;;;2615142;54;20387;-79
2021/12/23 00:47:29;;;;;;;16.03;13.17;;;2.00;96.80;;;;;;2613960;39;20957;-78
2021/12/23 00:49:55;;;;;;;18.90;15.00;;;1.90;96.00;;;;;;2613748;54;20411;-80
2021/12/23 00:52:28;;;;;;;19.57;14.00;;;2.00;96.80;;;;;;2613704;54;20438;-79
2021/12/23 00:54:54;;;;;;;22.60;12.90;;;2.30;96.10;;;;;;2614094;54;20924;-80
2021/12/23 00:57:27;;;;;;;15.30;12.10;;;2.40;95.60;;;;;;2613773;46;20425;-79
2021/12/23 00:59:53;;;;;;;22.27;14.77;;;2.60;95.40;;;;;;2613345;54;20518;-77
2021/12/23 01:02:23;;;;;;;24.00;14.20;;;2.60;94.40;;;;;;2614821;39;20784;-79
2021/12/23 01:04:49;;;;;;;14.80;13.17;;;2.70;93.80;;;;;;2614184;54;20900;-76
2021/12/23 01:07:14;;;;;;;17.20;12.17;;;2.70;92.70;;;;;;2613061;47;20522;-77
2021/12/23 01:09:40;;;;;;;22.23;13.63;;;2.70;93.30;;;;;;2613050;47;20205;-80
2021/12/23 01:12:09;;;;;;;16.60;12.27;;;2.90;92.80;;;;;;2614411;54;20261;-78
2021/12/23 01:14:57;;;;;;;15.13;12.97;;;2.90;92.20;;;;;;2614542;54;20167;-80
2021/12/23 01:19:55;;;;;;;23.07;14.20;;;2.00;97.80;;;;;;2614635;54;20423;-80
2021/12/23 01:22:22;;;;;;;21.00;13.03;;;2.20;99.70;;;;;;2615101;39;20821;-79
2021/12/23 01:24:49;;;;;;;28.43;14.27;;;2.50;97.20;;;;;;2614383;54;20498;-79
2021/12/23 01:27:15;;;;;;;15.33;12.80;;;2.80;96.40;;;;;;2613734;47;20976;-78
2021/12/23 01:29:41;;;;;;;16.67;12.93;;;2.60;96.10;;;;;;2613811;54;20367;-80
2021/12/23 01:32:07;;;;;;;27.03;14.90;;;2.90;96.20;;;;;;2613670;47;21122;-77
2021/12/23 01:34:35;;;;;;;17.10;12.47;;;3.20;94.30;;;;;;2613641;54;20410;-76
2021/12/23 01:37:02;;;;;;;19.67;14.60;;;2.60;94.40;;;;;;2612551;54;21033;-80
2021/12/23 01:39:28;;;;;;;20.47;14.37;;;1.90;97.00;;;;;;2614994;54;20415;-79
2021/12/23 01:41:53;;;;;;;16.40;12.40;;;2.10;97.50;;;;;;2614681;47;20419;-78
2021/12/23 01:44:20;;;;;;;19.50;14.20;;;2.30;95.40;;;;;;2615017;54;20391;-80
2021/12/23 01:46:45;;;;;;;19.47;14.10;;;2.20;96.60;;;;;;2614422;54;20430;-80
2021/12/23 01:49:11;;;;;;;22.20;13.80;;;2.10;95.80;;;;;;2613884;54;20435;-79
2021/12/23 01:51:37;;;;;;;25.10;14.53;;;2.00;97.10;;;;;;2615447;54;20425;-78
2021/12/23 01:54:04;;;;;;;21.57;13.50;;;1.80;98.80;;;;;;2614552;47;20550;-77
2021/12/23 01:56:30;;;;;;;20.73;14.00;;;1.90;99.10;;;;;;2615450;54;21116;-80
2021/12/23 01:58:55;;;;;;;16.67;12.43;;;1.90;98.50;;;;;;2614237;51;20407;-80
2021/12/23 02:01:22;;;;;;;19.97;14.03;;;1.90;98.80;;;;;;2615622;54;20423;-73
2021/12/23 02:03:48;;;;;;;21.60;15.93;;;1.80;99.90;;;;;;2613786;54;20500;-73
2021/12/23 02:06:15;;;;;;;16.00;9.07;;;1.80;99.90;;;;;;2615606;47;20411;-74
2021/12/23 02:08:43;;;;;;;20.00;15.67;;;1.60;99.90;;;;;;2614753;47;20413;-74
2021/12/23 02:11:10;;;;;;;19.53;14.53;;;1.50;99.90;;;;;;2614808;54;20399;-75
2021/12/23 02:13:37;;;;;;;20.80;14.13;;;1.80;99.90;;;;;;2616008;39;20763;-75
2021/12/23 02:16:06;;;;;;;20.47;13.30;;;1.90;99.90;;;;;;2615087;54;20402;-75
2021/12/23 02:18:32;;;;;;;23.67;14.60;;;1.70;99.90;;;;;;2614989;39;20488;-74
2021/12/23 02:20:58;;;;;;;22.00;15.57;;;1.70;99.90;;;;;;2615432;39;20788;-74
2021/12/23 02:23:25;;;;;;;18.70;14.67;;;1.80;99.90;;;;;;2614422;54;20406;-74
2021/12/23 02:25:51;;;;;;;26.70;15.10;;;2.00;99.90;;;;;;2615420;54;20399;-73
2021/12/23 02:28:19;;;;;;;22.40;13.53;;;1.90;99.90;;;;;;2615325;54;20421;-74
2021/12/23 02:30:51;;;;;;;23.37;16.07;;;2.00;99.90;;;;;;2614951;54;20169;-73
2021/12/23 02:33:22;;;;;;;20.27;14.90;;;2.00;99.90;;;;;;2614413;47;20499;-73
2021/12/23 02:35:49;;;;;;;23.93;17.00;;;1.90;99.90;;;;;;2615269;54;20418;-73
2021/12/23 02:38:15;;;;;;;17.27;13.20;;;2.20;99.90;;;;;;2615119;54;20386;-74
2021/12/23 02:40:42;;;;;;;21.13;14.03;;;2.70;99.80;;;;;;2615114;54;20958;-73
2021/12/23 02:43:25;;;;;;;25.70;15.00;;;2.20;99.90;;;;;;2614916;54;20153;-74
2021/12/23 02:45:55;;;;;;;21.10;15.93;;;2.40;99.90;;;;;;2614275;47;20427;-73
2021/12/23 02:48:41;;;;;;;20.63;15.37;;;2.30;99.90;;;;;;2615219;54;20423;-73
2021/12/23 02:51:10;;;;;;;24.43;15.60;;;2.70;99.90;;;;;;2614932;54;20387;-77
2021/12/23 02:53:37;;;;;;;22.43;15.17;;;3.00;98.20;;;;;;2615316;54;20844;-74
2021/12/23 02:56:07;;;;;;;24.23;17.20;;;3.30;95.70;;;;;;2615025;54;21008;-73
2021/12/23 02:58:33;;;;;;;24.47;15.57;;;3.30;95.50;;;;;;2615106;54;20407;-73
2021/12/23 03:01:01;;;;;;;21.87;14.73;;;3.50;94.30;;;;;;2613520;47;20439;-73
2021/12/23 03:03:27;;;;;;;19.80;15.17;;;3.50;93.10;;;;;;2615922;54;20427;-75
2021/12/23 03:05:55;;;;;;;25.70;15.00;;;2.90;95.30;;;;;;2614634;46;20427;-73
2021/12/23 03:08:36;;;;;;;21.90;15.90;;;3.10;95.60;;;;;;2615359;39;20639;-73
2021/12/23 03:11:03;;;;;;;27.80;17.03;;;2.80;96.60;;;;;;2614453;54;20427;-73
2021/12/23 03:13:29;;;;;;;24.10;15.03;;;3.20;96.30;;;;;;2614813;47;20446;-73
2021/12/23 03:15:57;;;;;;;26.77;16.27;;;3.30;96.30;;;;;;2614612;54;20448;-73
2021/12/23 03:18:23;;;;;;;23.83;17.83;;;3.10;96.20;;;;;;2616370;31;20866;-75
2021/12/23 03:20:48;;;;;;;24.53;15.40;;;3.20;96.40;;;;;;2614452;54;20419;-74
2021/12/23 03:23:14;;;;;;;21.40;15.13;;;2.80;97.80;;;;;;2614454;54;20213;-73
2021/12/23 03:25:41;;;;;;;23.20;17.03;;;2.70;99.90;;;;;;2614727;54;20163;-72
2021/12/23 03:28:07;;;;;;;21.10;14.93;;;3.20;99.10;;;;;;2613621;54;20706;-76
2021/12/23 03:30:33;;;;;;;23.07;15.70;;;3.10;97.90;;;;;;2614325;47;20415;-74
2021/12/23 03:33:00;;;;;;;19.83;15.07;;;3.20;99.60;;;;;;2614288;54;20446;-74
2021/12/23 03:35:26;;;;;;;21.63;15.83;;;3.80;95.40;;;;;;2613848;54;20423;-74
2021/12/23 03:37:53;;;;;;;22.60;15.37;;;3.60;95.60;;;;;;2612678;47;20435;-73
2021/12/23 03:40:20;;;;;;;23.87;17.10;;;3.70;94.50;;;;;;2613574;54;20495;-74
2021/12/23 03:42:45;;;;;;;24.53;16.77;;;3.50;96.50;;;;;;2613962;47;20440;-73
2021/12/23 03:45:13;;;;;;;28.63;17.60;;;3.90;94.90;;;;;;2615432;31;20840;-74
2021/12/23 03:47:39;;;;;;;23.00;14.87;;;3.40;96.50;;;;;;2614557;47;20472;-74
2021/12/23 03:50:06;;;;;;;20.87;14.40;;;2.20;99.90;;;;;;2615114;54;20486;-73
2021/12/23 03:52:33;;;;;;;20.70;16.10;;;2.70;99.90;;;;;;2614263;39;20764;-72
2021/12/23 03:54:59;;;;;;;26.00;17.17;;;3.20;99.90;;;;;;2613829;54;20439;-74
2021/12/23 03:57:24;;;;;;;22.10;16.07;;;3.30;99.30;;;;;;2614215;39;20820;-73
2021/12/23 03:59:50;;;;;;;23.33;15.23;;;3.00;99.90;;;;;;2614361;39;20602;-74
2021/12/23 04:02:16;;;;;;;26.13;16.60;;;2.60;99.90;;;;;;2614568;47;20278;-74
2021/12/23 04:04:43;;;;;;;21.43;16.70;;;2.00;99.90;;;;;;2615115;39;20594;-74
2021/12/23 04:07:09;;;;;;;20.80;15.07;;;1.70;99.90;;;;;;2615147;54;20383;-74
2021/12/23 04:09:35;;;;;;;21.87;15.83;;;1.90;99.90;;;;;;2614715;54;20402;-74
2021/12/23 04:12:01;;;;;;;22.33;15.07;;;2.00;99.90;;;;;;2614487;54;20165;-73
2021/12/23 04:14:26;;;;;;;24.53;16.80;;;1.70;99.90;;;;;;2613885;54;20155;-74
2021/12/23 04:16:52;;;;;;;26.57;16.70;;;1.30;99.90;;;;;;2615184;39;20783;-73
2021/12/23 04:19:18;;;;;;;24.13;14.17;;;1.40;99.90;;;;;;2614217;51;20166;-73
2021/12/23 04:21:44;;;;;;;19.70;15.10;;;1.70;99.90;;;;;;2614457;54;20589;-74
2021/12/23 04:24:10;;;;;;;22.77;16.03;;;1.90;99.90;;;;;;2615395;39;21176;-74
2021/12/23 04:26:38;;;;;;;21.07;15.40;;;1.50;99.90;;;;;;2615172;54;20391;-75
2021/12/23 04:29:05;;;;;;;19.80;15.73;;;1.70;99.90;;;;;;2615065;54;20480;-73
2021/12/23 04:31:31;;;;;;;24.33;16.73;;;1.80;99.90;;;;;;2614370;47;20410;-74
2021/12/23 04:33:57;;;;;;;23.90;16.63;;;1.50;99.90;;;;;;2615548;54;20470;-73
2021/12/23 04:36:29;;;;;;;26.50;16.97;;;1.50;99.90;;;;;;2614672;47;20391;-72
2021/12/23 04:38:58;;;;;;;29.50;18.27;;;1.60;99.90;;;;;;2615279;54;20401;-73
2021/12/23 04:41:24;;;;;;;28.47;16.63;;;1.20;99.90;;;;;;2614939;39;20537;-73
2021/12/23 04:43:50;;;;;;;31.40;19.00;;;1.20;99.90;;;;;;2615643;54;21074;-73
2021/12/23 04:46:17;;;;;;;25.13;18.80;;;0.90;99.90;;;;;;2614548;54;20406;-76
2021/12/23 04:48:45;;;;;;;24.00;18.17;;;1.10;99.90;;;;;;2614171;54;20394;-72
2021/12/23 04:51:14;;;;;;;22.93;16.73;;;1.10;99.90;;;;;;2614209;47;20412;-72
2021/12/23 04:53:40;;;;;;;28.30;16.63;;;1.20;99.90;;;;;;2615222;54;20482;-73
2021/12/23 04:56:06;;;;;;;27.10;18.47;;;1.30;99.90;;;;;;2615036;47;20466;-74
2021/12/23 04:58:33;;;;;;;30.57;19.27;;;1.20;99.90;;;;;;2615453;54;20420;-74
2021/12/23 05:00:58;;;;;;;24.47;17.33;;;1.30;99.90;;;;;;2614333;54;20414;-75
2021/12/23 05:03:25;;;;;;;24.03;18.60;;;1.40;99.90;;;;;;2614164;54;20434;-73
2021/12/23 05:05:52;;;;;;;25.33;17.83;;;1.60;99.90;;;;;;2614531;39;20800;-73
2021/12/23 05:08:20;;;;;;;31.60;19.43;;;1.50;99.90;;;;;;2614820;54;20404;-75
2021/12/23 05:10:46;;;;;;;30.23;18.40;;;1.50;99.90;;;;;;2614352;54;20460;-73
2021/12/23 05:13:12;;;;;;;24.93;18.37;;;1.70;99.90;;;;;;2614522;54;20383;-73
2021/12/23 05:15:38;;;;;;;26.53;18.67;;;1.60;99.90;;;;;;2615037;54;20445;-74
2021/12/23 05:18:05;;;;;;;24.50;17.77;;;1.60;99.90;;;;;;2614430;47;21114;-74
2021/12/23 05:20:31;;;;;;;27.90;18.43;;;1.10;99.90;;;;;;2614890;54;20423;-73
2021/12/23 05:22:57;;;;;;;27.07;18.67;;;1.00;99.90;;;;;;2613809;39;20737;-73
2021/12/23 05:25:25;;;;;;;27.37;19.10;;;1.00;99.90;;;;;;2616077;39;20837;-74
2021/12/23 05:27:52;;;;;;;23.97;17.87;;;0.90;99.90;;;;;;2614358;54;20427;-74
2021/12/23 05:30:20;;;;;;;34.03;22.30;;;0.90;99.90;;;;;;2614431;54;20419;-73
2021/12/23 05:32:46;;;;;;;26.90;19.57;;;1.00;99.90;;;;;;2614484;47;20975;-74
2021/12/23 05:35:14;;;;;;;31.53;19.17;;;1.10;99.90;;;;;;2614856;54;20935;-72
2021/12/23 05:37:42;;;;;;;29.50;19.20;;;1.10;99.90;;;;;;2613870;54;20443;-73
2021/12/23 05:40:10;;;;;;;28.40;19.17;;;1.20;99.90;;;;;;2614831;47;20464;-73
2021/12/23 05:42:36;;;;;;;27.40;17.93;;;1.40;99.90;;;;;;2613768;54;20486;-75
2021/12/23 05:45:03;;;;;;;29.07;17.80;;;1.50;99.90;;;;;;2615918;39;20850;-73
2021/12/23 05:47:29;;;;;;;26.60;17.83;;;1.60;99.90;;;;;;2614577;47;20431;-75
2021/12/23 05:49:54;;;;;;;28.03;19.10;;;1.60;99.90;;;;;;2614474;54;20394;-73
2021/12/23 05:52:20;;;;;;;32.13;20.20;;;1.50;99.90;;;;;;2613839;54;20147;-74
2021/12/23 05:54:46;;;;;;;27.33;17.50;;;1.50;99.90;;;;;;2614972;54;20238;-73
2021/12/23 05:57:12;;;;;;;27.77;18.33;;;1.60;99.90;;;;;;2613964;47;20171;-72
2021/12/23 05:59:38;;;;;;;28.63;19.63;;;1.70;99.90;;;;;;2614483;47;20166;-73
2021/12/23 06:02:06;;;;;;;21.20;16.33;;;1.80;99.90;;;;;;2613381;54;20413;-73
2021/12/23 06:04:32;;;;;;;12.87;9.87;;;2.10;99.90;;;;;;2615191;54;20458;-73
2021/12/23 06:06:58;;;;;;;27.53;18.00;;;2.00;99.90;;;;;;2613998;47;20431;-74
2021/12/23 06:09:25;;;;;;;22.70;18.50;;;1.90;99.90;;;;;;2614405;54;20398;-73
2021/12/23 06:11:51;;;;;;;28.57;18.83;;;2.00;99.90;;;;;;2613302;47;20414;-74
2021/12/23 06:14:18;;;;;;;29.23;17.30;;;2.10;99.90;;;;;;2614409;54;20415;-74
2021/12/23 06:16:44;;;;;;;29.07;19.20;;;2.10;99.90;;;;;;2613831;54;20162;-74
2021/12/23 06:19:10;;;;;;;25.20;18.77;;;2.20;99.90;;;;;;2614057;54;20459;-75
2021/12/23 06:21:36;;;;;;;27.73;18.27;;;2.20;99.90;;;;;;2613735;47;20417;-73
2021/12/23 06:24:05;;;;;;;31.23;19.03;;;2.50;99.90;;;;;;2614468;54;20397;-73
2021/12/23 06:26:31;;;;;;;28.50;19.20;;;2.70;99.90;;;;;;2615217;54;21098;-73
2021/12/23 06:28:58;;;;;;;31.23;19.87;;;3.20;99.90;;;;;;2615008;47;20418;-72
2021/12/23 06:31:24;;;;;;;31.80;20.43;;;3.20;99.90;;;;;;2614106;54;20395;-73
2021/12/23 06:33:50;;;;;;;25.97;17.00;;;3.20;99.90;;;;;;2614705;54;20955;-75
2021/12/23 06:36:17;;;;;;;31.50;20.07;;;3.20;99.90;;;;;;2614625;47;20437;-75
2021/12/23 06:38:45;;;;;;;30.70;16.20;;;2.80;99.90;;;;;;2614824;54;20434;-76
2021/12/23 06:41:12;;;;;;;27.00;19.77;;;2.70;99.90;;;;;;2614761;46;20410;-74
2021/12/23 06:43:38;;;;;;;29.40;18.53;;;2.60;99.90;;;;;;2614983;47;20395;-73
2021/12/23 06:46:04;;;;;;;26.47;18.70;;;2.30;99.90;;;;;;2614548;54;20427;-73
2021/12/23 06:48:31;;;;;;;32.93;20.30;;;2.60;99.90;;;;;;2614235;54;20458;-73
2021/12/23 06:50:57;;;;;;;30.17;20.53;;;2.40;99.90;;;;;;2614762;54;20419;-73
2021/12/23 06:53:24;;;;;;;31.10;19.13;;;2.10;99.90;;;;;;2614874;39;20782;-74
2021/12/23 06:55:52;;;;;;;29.23;18.50;;;2.00;99.90;;;;;;2615034;47;20423;-73
2021/12/23 06:58:19;;;;;;;24.73;17.73;;;2.10;99.90;;;;;;2614423;54;20568;-74
2021/12/23 07:00:45;;;;;;;23.73;15.47;;;2.20;99.90;;;;;;2615027;47;20434;-73
2021/12/23 07:03:11;;;;;;;29.00;18.63;;;2.00;99.90;;;;;;2614071;47;20395;-73
2021/12/23 07:05:37;;;;;;;27.33;17.03;;;1.90;99.90;;;;;;2614310;46;21016;-75
2021/12/23 07:08:06;;;;;;;28.17;16.43;;;2.30;99.90;;;;;;2614271;54;21020;-74
2021/12/23 07:10:33;;;;;;;28.40;17.70;;;2.30;99.90;;;;;;2614103;47;20403;-73
2021/12/23 07:13:02;;;;;;;29.20;18.40;;;2.50;99.90;;;;;;2615062;54;20422;-74
2021/12/23 07:15:28;;;;;;;26.90;18.30;;;2.40;99.90;;;;;;2614558;50;20951;-74
2021/12/23 07:17:57;;;;;;;30.00;18.47;;;2.20;99.90;;;;;;2615152;54;20438;-73
2021/12/23 07:20:24;;;;;;;26.93;18.67;;;2.20;99.90;;;;;;2614777;47;20418;-73
2021/12/23 07:22:50;;;;;;;25.87;18.63;;;2.30;99.90;;;;;;2614712;54;20411;-74
2021/12/23 07:25:16;;;;;;;26.97;17.80;;;2.40;99.90;;;;;;2615388;54;20444;-74
2021/12/23 07:27:44;;;;;;;27.17;18.20;;;2.30;99.90;;;;;;2613554;54;20153;-74
2021/12/23 07:30:13;;;;;;;26.83;17.63;;;2.80;99.90;;;;;;2616102;54;20419;-73
2021/12/23 07:32:40;;;;;;;22.30;17.17;;;2.70;99.90;;;;;;2613898;39;20892;-73
2021/12/23 07:35:06;;;;;;;33.47;18.33;;;2.20;99.90;;;;;;2611594;54;20393;-75
2021/12/23 07:37:32;;;;;;;34.63;19.97;;;2.40;99.90;;;;;;2613684;54;20513;-72
2021/12/23 07:39:58;;;;;;;26.50;18.40;;;2.60;99.90;;;;;;2615176;39;20851;-72
2021/12/23 07:42:26;;;;;;;23.67;17.97;;;2.40;99.90;;;;;;2612812;54;20411;-74
2021/12/23 07:44:52;;;;;;;29.30;18.53;;;2.40;99.90;;;;;;2611528;54;20428;-72
2021/12/23 07:47:18;;;;;;;29.27;19.90;;;2.70;99.90;;;;;;2610032;54;20407;-74
2021/12/23 07:49:44;;;;;;;23.47;17.17;;;2.40;99.90;;;;;;2613715;31;20864;-74
2021/12/23 07:52:11;;;;;;;27.77;16.83;;;2.40;99.90;;;;;;2612541;54;20166;-76
2021/12/23 07:54:38;;;;;;;26.13;18.00;;;2.70;99.90;;;;;;2613764;47;20534;-74
2021/12/23 07:57:05;;;;;;;27.57;18.10;;;3.10;99.90;;;;;;2613629;39;21063;-73
2021/12/23 07:59:31;;;;;;;28.60;19.60;;;3.30;99.90;;;;;;2611443;54;20527;-74
2021/12/23 08:01:57;;;;;;;32.67;17.73;;;3.70;99.90;;;;;;2610497;47;20403;-74
2021/12/23 08:04:24;;;;;;;29.50;20.20;;;3.60;99.90;;;;;;2613306;54;20154;-74
2021/12/23 08:06:55;;;;;;;29.30;19.17;;;3.70;99.90;;;;;;2613877;54;20410;-73
2021/12/23 08:09:22;;;;;;;33.53;17.80;;;3.90;99.90;;;;;;2613824;39;20947;-74
2021/12/23 08:11:48;;;;;;;29.70;20.33;;;4.00;99.90;;;;;;2612976;47;20452;-74
2021/12/23 08:14:14;;;;;;;31.83;20.87;;;4.20;99.90;;;;;;2614361;54;20415;-73
2021/12/23 08:16:40;;;;;;;33.00;20.33;;;3.90;99.30;;;;;;2611928;54;20999;-74
2021/12/23 08:19:06;;;;;;;34.87;19.03;;;3.80;99.90;;;;;;2614167;54;20460;-73
2021/12/23 08:21:33;;;;;;;37.03;17.93;;;3.20;99.90;;;;;;2613721;54;20962;-73
2021/12/23 08:23:58;;;;;;;25.80;18.33;;;3.20;99.90;;;;;;2612335;47;20166;-77
2021/12/23 08:26:28;;;;;;;38.43;19.30;;;3.50;99.90;;;;;;2613012;47;20415;-73
2021/12/23 08:28:55;;;;;;;35.50;19.73;;;3.90;98.60;;;;;;2613892;54;20162;-73
2021/12/23 08:31:22;;;;;;;23.00;18.40;;;3.90;99.30;;;;;;2613247;54;20398;-74
2021/12/23 08:33:49;;;;;;;29.97;19.90;;;4.10;96.30;;;;;;2614360;54;20411;-74
2021/12/23 08:36:15;;;;;;;28.17;17.53;;;4.00;95.10;;;;;;2613599;54;20968;-74
2021/12/23 08:38:41;;;;;;;25.97;17.77;;;3.80;96.80;;;;;;2612906;54;20428;-74
2021/12/23 08:41:08;;;;;;;32.40;19.13;;;3.40;99.90;;;;;;2614331;54;20419;-77
2021/12/23 08:43:34;;;;;;;26.27;18.20;;;3.20;99.90;;;;;;2613161;54;20417;-74
2021/12/23 08:46:00;;;;;;;21.67;16.33;;;3.60;99.90;;;;;;2610951;54;20447;-73
2021/12/23 08:48:26;;;;;;;26.23;17.87;;;3.50;99.10;;;;;;2612473;39;20458;-75
2021/12/23 08:50:52;;;;;;;32.37;17.20;;;3.20;99.90;;;;;;2613504;54;20420;-74
2021/12/23 08:53:18;;;;;;;28.13;19.43;;;3.30;99.90;;;;;;2613605;47;20158;-75
2021/12/23 08:55:44;;;;;;;25.90;17.60;;;3.00;99.90;;;;;;2613171;54;20428;-74
2021/12/23 08:58:09;;;;;;;25.80;17.87;;;3.20;99.90;;;;;;2613334;54;20130;-74
2021/12/23 09:00:39;;;;;;;30.40;19.53;;;3.30;99.90;;;;;;2613453;54;20422;-73
2021/12/23 09:03:08;;;;;;;22.53;16.40;;;3.80;99.90;;;;;;2612940;54;20169;-75
2021/12/23 09:05:37;;;;;;;30.23;18.13;;;3.30;99.90;;;;;;2611879;54;20452;-73
2021/12/23 09:08:05;;;;;;;24.47;18.00;;;3.20;99.90;;;;;;2613644;54;20394;-75
2021/12/23 09:10:33;;;;;;;32.47;19.67;;;3.30;99.80;;;;;;2612877;47;20922;-73
2021/12/23 09:12:59;;;;;;;22.23;16.77;;;3.80;98.30;;;;;;2613816;47;20418;-73
2021/12/23 09:15:25;;;;;;;21.40;17.10;;;4.40;94.40;;;;;;2611713;54;20406;-74
2021/12/23 09:17:51;;;;;;;24.10;17.63;;;4.40;92.60;;;;;;2611900;39;20832;-73
2021/12/23 09:20:19;;;;;;;26.17;15.40;;;4.60;93.20;;;;;;2611427;54;20147;-74
2021/12/23 09:22:46;;;;;;;32.23;20.67;;;4.50;91.00;;;;;;2614141;39;20687;-74
2021/12/23 09:25:23;;;;;;;28.73;17.53;;;4.30;93.30;;;;;;2614289;54;20413;-75
2021/12/23 09:33:10;;;;;;;25.90;19.10;;;5.00;90.60;;;;;;2612092;47;20423;-72
2021/12/23 09:35:37;;;;;;;23.40;17.53;;;5.40;84.80;;;;;;2613525;54;20423;-74
2021/12/23 09:38:03;;;;;;;22.37;18.00;;;5.40;81.90;;;;;;2611774;54;20415;-74
2021/12/23 09:40:32;;;;;;;31.53;18.87;;;5.50;84.70;;;;;;2611134;47;20450;-74
2021/12/23 09:43:03;;;;;;;23.30;16.37;;;5.60;79.80;;;;;;2610175;51;20431;-74
2021/12/23 09:45:29;;;;;;;26.20;17.80;;;4.90;88.60;;;;;;2611252;54;20416;-75
2021/12/23 09:47:58;;;;;;;24.20;17.50;;;5.20;83.00;;;;;;2612157;47;20431;-75
2021/12/23 09:50:26;;;;;;;25.10;17.77;;;5.50;82.00;;;;;;2611678;54;20427;-73
2021/12/23 09:52:53;;;;;;;23.90;17.10;;;5.50;80.10;;;;;;2613244;47;20435;-75
2021/12/23 09:55:23;;;;;;;26.67;15.70;;;5.30;82.40;;;;;;2613880;54;20821;-77
2021/12/23 09:57:50;;;;;;;21.73;16.53;;;5.10;85.30;;;;;;2613180;54;20422;-74
2021/12/23 10:00:22;;;;;;;21.87;15.90;;;4.80;86.80;;;;;;2615367;39;20788;-74
2021/12/23 10:02:48;;;;;;;28.13;17.17;;;4.90;89.50;;;;;;2615108;31;20893;-74
2021/12/23 10:05:19;;;;;;;22.53;16.07;;;5.20;84.40;;;;;;2611744;47;20407;-75
2021/12/23 10:07:47;;;;;;;20.70;16.60;;;5.50;82.00;;;;;;2609739;54;20414;-75
2021/12/23 10:10:28;;;;;;;23.00;17.40;;;5.40;82.50;;;;;;2613130;54;20450;-75
2021/12/23 10:38:06;;;;;;;26.27;18.07;;;6.20;83.40;;;;;;2611031;54;20431;-75
2021/12/23 10:40:33;;;;;;;18.57;13.80;;;6.20;80.40;;;;;;2613973;47;20430;-75
2021/12/23 10:43:00;;;;;;;17.07;14.40;;;6.40;76.30;;;;;;2612006;54;20444;-73
2021/12/23 10:45:35;;;;;;;24.40;17.00;;;5.90;78.80;;;;;;2614202;54;20426;-74
2021/12/23 10:48:09;;;;;;;18.40;14.90;;;5.70;82.60;;;;;;2613323;47;20489;-74
2021/12/23 10:53:26;;;;;;;24.40;15.17;;;6.70;68.90;;;;;;2613541;47;20490;-76
2021/12/23 10:59:12;;;;;;;22.30;15.10;;;7.20;68.20;;;;;;2612767;54;20452;-75
2021/12/23 11:02:10;;;;;;;23.83;15.90;;;7.10;69.20;;;;;;2611646;54;20967;-75
2021/12/23 11:05:10;;;;;;;22.27;14.17;;;7.20;69.30;;;;;;2613514;47;21012;-75
2021/12/23 11:08:07;;;;;;;22.07;14.60;;;7.20;68.60;;;;;;2611774;54;21010;-75
2021/12/23 11:38:27;;;;;;;17.00;12.53;;;6.80;73.30;;;;;;2612798;47;20428;-75
2021/12/23 11:40:57;;;;;;;20.90;13.40;;;6.50;77.80;;;;;;2613119;39;20438;-77
2021/12/23 11:43:31;;;;;;;19.70;13.27;;;6.80;75.70;;;;;;2614555;54;21019;-73
2021/12/23 11:45:58;;;;;;;13.70;9.87;;;7.50;72.70;;;;;;2613606;39;20785;-74
2021/12/23 11:48:24;;;;;;;18.33;13.13;;;6.80;74.20;;;;;;2614080;39;20996;-74
2021/12/23 11:51:01;;;;;;;17.20;14.20;;;6.70;78.60;;;;;;2613943;54;20412;-76
2021/12/23 11:53:28;;;;;;;18.57;11.80;;;6.60;79.60;;;;;;2614232;54;20185;-75
2021/12/23 11:55:55;;;;;;;19.27;13.57;;;7.00;76.10;;;;;;2613883;47;20410;-74
2021/12/23 11:58:24;;;;;;;21.07;13.37;;;7.50;74.60;;;;;;2613654;47;20430;-74
2021/12/23 12:01:03;;;;;;;19.90;14.60;;;7.50;72.60;;;;;;2614843;54;21077;-74
2021/12/23 12:03:30;;;;;;;19.40;13.87;;;7.50;74.80;;;;;;2613813;47;20415;-73
2021/12/23 12:06:16;;;;;;;20.70;11.40;;;7.40;74.40;;;;;;2613713;54;20419;-78
2021/12/23 12:08:44;;;;;;;19.13;13.63;;;6.80;79.30;;;;;;2612391;54;20492;-73
2021/12/23 12:11:29;;;;;;;13.60;7.37;;;6.70;80.40;;;;;;2614068;54;20426;-76
2021/12/23 12:13:55;;;;;;;20.90;13.20;;;6.60;82.80;;;;;;2614456;54;20387;-75
2021/12/23 12:16:33;;;;;;;18.07;13.07;;;6.70;84.70;;;;;;2611310;54;20424;-73
2021/12/23 12:18:59;;;;;;;17.97;11.73;;;6.80;83.40;;;;;;2613781;54;20452;-73
2021/12/23 12:21:34;;;;;;;19.43;11.30;;;7.00;82.40;;;;;;2613686;54;20550;-74
2021/12/23 12:24:18;;;;;;;12.97;9.50;;;6.80;85.20;;;;;;2611862;47;20423;-74
2021/12/23 12:27:01;;;;;;;22.20;13.87;;;6.70;85.90;;;;;;2613793;54;20485;-75
2021/12/23 12:29:36;;;;;;;19.03;13.00;;;6.70;87.30;;;;;;2614299;54;20503;-74
2021/12/23 12:32:04;;;;;;;17.03;10.23;;;6.80;87.80;;;;;;2613209;54;20426;-74
2021/12/23 12:34:36;;;;;;;12.40;9.50;;;6.70;90.40;;;;;;2614338;54;20458;-79
2021/12/23 12:37:04;;;;;;;16.50;12.80;;;6.80;88.20;;;;;;2612784;39;20969;-75
2021/12/23 12:39:46;;;;;;;21.10;13.47;;;6.50;90.60;;;;;;2613760;51;20431;-76
2021/12/23 12:42:29;;;;;;;16.80;13.10;;;6.80;90.10;;;;;;2613470;54;20423;-74
2021/12/23 12:45:07;;;;;;;19.33;10.40;;;6.80;90.20;;;;;;2613608;54;20539;-75
2021/12/23 12:47:37;;;;;;;17.50;12.73;;;6.80;90.00;;;;;;2612128;54;20423;-75
2021/12/23 12:50:15;;;;;;;14.10;10.80;;;6.60;91.20;;;;;;2612157;54;20387;-74
2021/12/23 12:52:46;;;;;;;20.90;14.20;;;6.70;91.20;;;;;;2613893;54;20416;-75
2021/12/23 12:55:25;;;;;;;20.60;13.37;;;6.60;91.70;;;;;;2614694;54;20980;-74
2021/12/23 12:58:04;;;;;;;18.80;10.10;;;6.70;91.40;;;;;;2614288;54;20494;-74
2021/12/23 13:00:35;;;;;;;20.63;13.20;;;6.70;91.40;;;;;;2613386;54;20426;-76
2021/12/23 13:03:14;;;;;;;23.67;13.50;;;6.90;90.70;;;;;;2612755;54;21500;-74
2021/12/23 13:05:43;;;;;;;17.40;12.30;;;6.90;91.20;;;;;;2611905;54;20436;-74
2021/12/23 13:08:32;;;;;;;19.97;12.77;;;7.10;91.60;;;;;;2613863;54;20489;-74
2021/12/23 13:11:07;;;;;;;23.90;15.70;;;6.90;92.90;;;;;;2613971;54;20411;-75
2021/12/23 13:14:00;;;;;;;29.90;14.30;;;7.20;91.10;;;;;;2612990;54;20431;-74
2021/12/23 13:16:58;;;;;;;18.73;11.23;;;7.30;90.20;;;;;;2610221;47;20910;-74
2021/12/23 13:19:36;;;;;;;23.50;13.30;;;7.40;89.80;;;;;;2611602;54;20412;-74
2021/12/23 13:22:07;;;;;;;20.20;11.83;;;7.30;90.50;;;;;;2612415;47;20435;-74
2021/12/23 13:24:33;;;;;;;19.67;13.27;;;7.30;90.60;;;;;;2613288;54;20426;-75
2021/12/23 13:27:01;;;;;;;18.40;12.90;;;7.70;88.30;;;;;;2612784;54;20503;-74
2021/12/23 13:29:30;;;;;;;17.27;14.20;;;7.70;86.60;;;;;;2612098;54;20422;-79
2021/12/23 13:31:58;;;;;;;16.90;12.87;;;7.70;86.50;;;;;;2611224;54;20458;-74
2021/12/23 13:34:27;;;;;;;19.77;13.03;;;7.60;88.70;;;;;;2611591;39;21156;-73
2021/12/23 13:36:58;;;;;;;15.33;12.67;;;7.90;87.20;;;;;;2611329;47;20974;-74
2021/12/23 13:39:27;;;;;;;16.70;12.13;;;7.80;86.50;;;;;;2611815;54;20379;-73
2021/12/23 13:41:55;;;;;;;13.57;9.80;;;8.20;82.20;;;;;;2610169;54;20435;-73
2021/12/23 13:44:43;;;;;;;19.20;12.00;;;8.10;84.40;;;;;;2612734;54;20427;-74
2021/12/23 13:47:18;;;;;;;17.37;11.77;;;7.60;88.20;;;;;;2610974;47;20398;-73
2021/12/23 13:49:47;;;;;;;20.17;12.67;;;7.90;86.70;;;;;;2610765;54;20439;-73
2021/12/23 13:52:23;;;;;;;19.90;13.17;;;7.60;89.10;;;;;;2614244;54;20497;-74
2021/12/23 13:54:52;;;;;;;24.47;15.40;;;7.40;90.50;;;;;;2614728;47;21078;-74
2021/12/23 13:57:20;;;;;;;18.07;14.13;;;7.80;90.40;;;;;;2614074;54;20390;-76
2021/12/23 13:59:48;;;;;;;21.60;13.33;;;7.60;90.60;;;;;;2613629;51;20438;-74